Flight Track Log - Related Links

Times and Time Zones

All times are in EDT time to prevent confusion due to time zone crossing. See the FLG3897 flight status page for this flight to view local times or setup timezone preferences in your user account.

Time Position Orientation Groundspeed Altitude Reporting Facility
EDT Latitude Longitude Course Direction KTS MPH feet Rate Location/Type
Tue 04:12:19 PM 39.0333 -84.6500 100° East 173 199 2,000  Level Cincinnati TRACON
Tue 04:13:19 PM 39.0167 -84.5833 108° East 229 264 4,100 2,479 Climbing Cincinnati TRACON
Tue 04:14:20 PM 39.0000 -84.4833 102° East 290 334 7,000 2,481 Climbing Cincinnati TRACON
Tue 04:15:00 PM 38.8960 -84.2242 101° East  Level FlightAware Approximate
Tue 04:16:00 PM 38.8761 -84.0945 101° East  Level FlightAware Approximate
Tue 04:16:01 PM 39.0089 -84.3214 86° East 313 360 10,800  Level Indianapolis Center
Tue 04:17:00 PM 38.8569 -83.9646 100° East  Level FlightAware Approximate
Tue 04:17:04 PM 38.9594 -84.2172 121° Southeast 338 389 12,300  Level Indianapolis Center
Tue 04:18:06 PM 38.9278 -84.0975 109° East 358 412 14,600 1,935 Climbing Indianapolis Center
Tue 04:19:08 PM 38.9542 -83.9597 76° East 392 451 16,300 1,500 Climbing Indianapolis Center
Tue 04:20:10 PM 38.9864 -83.7950 76° East 405 466 17,700 1,161 Climbing Indianapolis Center
Tue 04:21:12 PM 39.0167 -83.6444 75° East 427 491 18,700 629 Climbing Indianapolis Center
Tue 04:22:14 PM 39.0472 -83.4936 75° East 433 498 19,000 145 Climbing Indianapolis Center
Tue 04:23:16 PM 39.0750 -83.3464 76° East 425 489 19,000  Level Indianapolis Center
Tue 04:24:18 PM 39.1031 -83.2033 76° East 414 476 19,000  Level Indianapolis Center
Tue 04:25:20 PM 39.1297 -83.0678 76° East 407 468 19,000  Level Indianapolis Center
Tue 04:27:24 PM 39.1881 -82.7592 76° East 400 460 19,000  Level Indianapolis Center
Tue 04:28:26 PM 39.2147 -82.6175 76° East 403 464 19,000  Level Indianapolis Center
Tue 04:29:28 PM 39.2417 -82.4778 76° East 401 461 19,000  Level Indianapolis Center
Tue 04:30:30 PM 39.2667 -82.3403 77° East 400 460 19,000  Level Indianapolis Center
Tue 04:31:32 PM 39.2933 -82.1992 76° East 401 461 19,000  Level Indianapolis Center
Tue 04:32:34 PM 39.3178 -82.0578 77° East 402 463 19,000  Level Indianapolis Center
Tue 04:33:36 PM 39.3492 -81.8886 76° East 402 463 19,000  Level Indianapolis Center
Tue 04:34:38 PM 39.3747 -81.7475 77° East 402 463 19,000  Level Indianapolis Center
Tue 04:35:40 PM 39.4011 -81.6064 76° East 401 461 19,000  Level Indianapolis Center
Tue 04:36:42 PM 39.4253 -81.4644 78° East 403 464 19,000  Level Indianapolis Center
Tue 04:37:44 PM 39.4794 -81.3394 61° Northeast 408 470 19,000  Level Indianapolis Center
Tue 04:38:47 PM 39.5714 -81.2456 38° Northeast 417 480 19,000  Level Indianapolis Center
Tue 04:39:49 PM 39.6631 -81.1547 37° Northeast 416 479 19,000 -146 Level Indianapolis Center
Tue 04:40:50 PM 39.7722 -81.0422 38° Northeast 404 465 18,700 -1,240 Descending Cleveland Center
Tue 04:41:50 PM 39.8622 -80.9508 38° Northeast 404 465 16,500 -2,200 Descending Cleveland Center
Tue 04:42:50 PM 39.9417 -80.8675 39° Northeast 392 451 14,300 -2,100 Descending Cleveland Center
Tue 04:43:50 PM 40.0233 -80.7836 38° Northeast 375 432 12,300 -1,850 Descending Cleveland Center
Tue 04:44:50 PM 40.0983 -80.6944 42° Northeast 364 419 10,600 -1,400 Descending Cleveland Center
Tue 04:45:50 PM 40.1650 -80.6131 43° Northeast 344 396 9,500 -1,150 Descending Cleveland Center
Tue 04:46:50 PM 40.2278 -80.5422 41° Northeast 314 361 8,300 -1,150 Descending Cleveland Center
Tue 04:47:50 PM 40.2903 -80.4742 40° Northeast 297 342 7,200 -1,000 Descending Cleveland Center
Tue 04:48:50 PM 40.3483 -80.4114 39° Northeast 283 326 6,300 -600 Descending Cleveland Center
Tue 04:49:50 PM 40.3839 -80.3406 57° Northeast 264 304 6,000 -300 Descending Cleveland Center
Tue 04:50:50 PM 40.4169 -80.2558 63° Northeast 253 291 5,700 -300 Descending Cleveland Center

Login

Don't have an account? Register now (free) for customized features, flight alerts, and more!